Data for 08/16/2008

Time Sea-Level Adjusted Pressure Absolute Pressure Temperature Relative Humidity Dew Point   
(mb) (inHg) (mb) (inHg) (C) (F) (%) (C) (F)
00:05 1025 30.27 854 25.22 15 59.1 48 4.3 39.7
00:10 1025 30.27 854 25.22 14.9 58.8 48 4.2 39.6
00:15 1025 30.27 854 25.22 14.8 58.7 49 4.2 39.5
00:20 1025 30.27 854 25.22 14.7 58.5 49 4.2 39.5
00:25 1025 30.27 854 25.22 14.7 58.5 49 4.3 39.7
00:30 1025 30.27 854 25.22 14.6 58.4 49 4.1 39.3
00:35 1025 30.27 854 25.22 14.7 58.5 49 4.1 39.4
00:40 1025 30.27 854 25.22 14.6 58.3 49 4.1 39.4
00:45 1024 30.24 854 25.22 14.5 58.1 49 4.1 39.4
00:50 1024 30.24 854 25.22 14.5 58.2 49 4.1 39.3
00:55 1024 30.24 854 25.22 14.6 58.3 49 4.1 39.3
01:00 1024 30.24 854 25.22 14.8 58.6 48 4.1 39.3
01:05 1024 30.24 854 25.22 14.7 58.5 49 4.2 39.6
01:10 1024 30.24 854 25.22 14.5 58.2 50 4.3 39.8
01:15 1024 30.24 854 25.22 14.5 58.1 50 4.2 39.6
01:20 1024 30.24 854 25.22 14.4 57.9 50 4.3 39.8
01:25 1024 30.24 853 25.19 14.4 57.9 50 4.3 39.7
01:30 1024 30.24 853 25.19 14.3 57.7 51 4.5 40
01:35 1024 30.24 853 25.19 14 57.2 52 4.4 40
01:40 1024 30.24 853 25.19 13.9 57 53 4.4 40
01:45 1024 30.24 853 25.19 13.9 56.9 53 4.4 40
01:50 1024 30.24 853 25.19 13.8 56.8 53 4.5 40
01:55 1024 30.24 853 25.19 13.9 57 52 4.3 39.8
02:00 1024 30.24 853 25.19 13.9 57.1 52 4.4 39.9
02:05 1024 30.24 853 25.19 13.9 57 53 4.4 40
02:10 1024 30.24 853 25.19 13.8 56.8 53 4.5 40.1
02:15 1024 30.24 853 25.19 13.6 56.6 54 4.6 40.2
02:20 1024 30.24 853 25.19 13.5 56.2 55 4.6 40.3
02:25 1024 30.24 853 25.19 13.3 56 55 4.5 40.1
02:30 1024 30.24 853 25.19 13.4 56.1 54 4.4 40
02:35 1024 30.24 853 25.19 13.5 56.2 55 4.6 40.3
02:40 1024 30.24 853 25.19 13.3 56 55 4.6 40.3
02:45 1024 30.24 853 25.19 13.2 55.8 56 4.6 40.3
02:50 1024 30.24 853 25.19 13.1 55.5 56 4.6 40.3
02:55 1024 30.24 853 25.19 13.1 55.6 56 4.5 40.2
03:00 1024 30.24 853 25.19 13.2 55.7 55 4.5 40.1
03:05 1024 30.24 853 25.19 13.2 55.8 56 4.7 40.4
03:10 1024 30.24 853 25.19 13.1 55.5 57 4.8 40.6
03:15 1024 30.24 853 25.19 12.9 55.2 57 4.7 40.4
03:20 1024 30.24 853 25.19 12.9 55.3 57 4.7 40.5
03:25 1024 30.24 853 25.19 12.9 55.3 58 4.8 40.7
03:30 1024 30.24 853 25.19 12.8 55 59 5 41
03:35 1024 30.24 853 25.19 12.6 54.6 59 4.9 40.9
03:40 1024 30.24 853 25.19 12.4 54.4 60 4.9 40.9
03:45 1024 30.24 853 25.19 12.4 54.3 60 5 40.9
03:50 1024 30.24 853 25.19 12.4 54.3 60 4.9 40.8
03:55 1024 30.24 853 25.19 12.5 54.4 60 5 41
04:00 1024 30.24 853 25.19 12.5 54.5 60 5.1 41.1
04:05 1024 30.24 853 25.19 12.5 54.5 60 5.1 41.1
04:10 1024 30.24 853 25.19 12.6 54.7 60 5 41
04:15 1024 30.24 853 25.19 12.5 54.6 60 5.1 41.2
04:20 1024 30.24 853 25.19 12.5 54.6 59 4.9 40.7
04:25 1024 30.24 853 25.19 12.6 54.6 60 5 41
04:30 1024 30.24 853 25.19 12.6 54.6 60 5 41.1
04:35 1024 30.24 853 25.19 12.4 54.4 61 5.1 41.2
04:40 1024 30.24 853 25.19 12.2 54 62 5.1 41.2
04:45 1024 30.24 853 25.19 12 53.6 62 5.1 41.1
04:50 1024 30.24 853 25.19 11.8 53.3 63 5.1 41.1
04:55 1024 30.24 853 25.19 11.6 52.8 64 5 41
05:00 1024 30.24 853 25.19 11.5 52.6 63 4.8 40.6
05:05 1024 30.24 853 25.19 11.4 52.5 63 4.6 40.3
05:10 1024 30.24 853 25.19 11.3 52.3 62 4.4 39.9
05:15 1024 30.24 853 25.19 11.4 52.4 63 4.5 40.2
05:20 1024 30.24 853 25.19 11.1 51.9 64 4.5 40.1
05:25 1024 30.24 853 25.19 10.9 51.5 63 4.2 39.6
05:30 1024 30.24 853 25.19 10.6 51 64 4.2 39.5
05:35 1024 30.24 853 25.19 10.4 50.8 64 3.9 39
05:40 1024 30.24 853 25.19 10.4 50.8 64 3.9 39.1
05:45 1024 30.24 853 25.19 10.4 50.6 64 3.9 39
05:50 1024 30.24 853 25.19 10.4 50.7 63 3.7 38.7
05:55 1024 30.24 853 25.19 10.5 50.9 62 3.7 38.6
06:00 1024 30.24 853 25.19 10.5 50.9 63 3.8 38.8
06:05 1024 30.24 853 25.19 10.4 50.6 63 3.7 38.7
06:10 1024 30.24 853 25.19 10.3 50.5 63 3.6 38.5
06:15 1024 30.24 853 25.19 10.4 50.7 63 3.7 38.6
06:20 1024 30.24 853 25.19 10.4 50.6 64 3.8 38.9
06:25 1024 30.24 853 25.19 10 50 65 3.7 38.7
06:30 1024 30.24 853 25.19 10.1 50.1 63 3.4 38.1
06:35 1024 30.24 853 25.19 10.3 50.5 63 3.6 38.5
06:40 1024 30.24 853 25.19 10.3 50.6 63 3.5 38.3
06:45 1024 30.24 853 25.19 10.3 50.6 63 3.6 38.5
06:50 1024 30.24 853 25.19 10.3 50.6 63 3.7 38.7
06:55 1024 30.24 853 25.19 10.4 50.6 64 3.8 38.9
07:00 1024 30.24 853 25.19 10.2 50.3 64 3.8 38.9
07:05 1024 30.24 853 25.19 10.2 50.3 64 3.7 38.7
07:10 1024 30.24 853 25.19 10.2 50.3 65 3.9 38.9
07:15 1024 30.24 853 25.19 10.1 50.2 64 3.6 38.5
07:20 1024 30.24 853 25.19 10.4 50.8 62 3.6 38.4
07:25 1024 30.24 853 25.19 11.2 52.1 60 3.6 38.5
07:30 1024 30.24 853 25.19 11.5 52.8 58 3.7 38.7
07:35 1024 30.24 853 25.19 11.7 53.1 58 3.9 39
07:40 1024 30.24 853 25.19 11.8 53.3 58 4 39.2
07:45 1024 30.24 853 25.19 12 53.6 58 4.2 39.5
07:50 1024 30.24 853 25.19 12.2 53.9 58 4.2 39.5
07:55 1024 30.24 853 25.19 12.3 54.1 57 4.1 39.4
08:00 1024 30.24 853 25.19 12.5 54.4 57 4.1 39.5
08:05 1024 30.24 853 25.19 12.7 54.9 55 4 39.3
08:10 1024 30.24 853 25.19 12.9 55.2 56 4.3 39.8
08:15 1024 30.24 853 25.19 13.3 55.9 54 4.2 39.6
08:20 1024 30.24 853 25.19 13.6 56.4 53 4.4 39.8
08:25 1024 30.24 853 25.19 14.1 57.3 52 4.5 40
08:30 1024 30.24 853 25.19 14.3 57.8 52 4.6 40.2
08:35 1024 30.24 853 25.19 14.7 58.4 51 4.8 40.6
08:40 1024 30.24 853 25.19 15 59 50 4.7 40.4
08:45 1024 30.24 853 25.19 15.1 59.1 48 4.2 39.5
08:50 1024 30.24 853 25.19 15 58.9 50 4.6 40.3
08:55 1024 30.24 853 25.19 15.6 60.1 46 4.2 39.6
09:00 1024 30.24 853 25.19 16.6 61.8 43 3.9 39.1
09:05 1024 30.24 853 25.19 16.6 61.9 42 3.9 39
09:10 1024 30.24 853 25.19 16.8 62.2 43 4.2 39.5
09:15 1024 30.24 853 25.19 16.5 61.8 43 4 39.1
09:20 1024 30.24 853 25.19 17 62.6 40 3.5 38.2
09:25 1024 30.24 853 25.19 17.5 63.5 39 3.4 38.1
09:30 1024 30.24 853 25.19 17.6 63.7 38 3.2 37.8
09:35 1024 30.24 853 25.19 17.7 63.9 37 2.9 37.3
09:40 1024 30.24 853 25.19 17.9 64.1 37 3 37.4
09:45 1024 30.24 853 25.19 17.9 64.2 37 3 37.5
09:50 1024 30.24 853 25.19 17.9 64.3 37 3.1 37.6
09:55 1024 30.24 853 25.19 18.4 65.1 36 3.1 37.6
10:00 1024 30.24 853 25.19 18.7 65.6 36 3.4 38.2
10:05 1024 30.24 853 25.19 18.8 65.8 37 3.8 38.8
10:10 1024 30.24 853 25.19 18.8 65.9 37 3.9 39.1
10:15 1024 30.24 853 25.19 19.4 66.9 35 3.8 38.8
10:20 1024 30.24 853 25.19 19.9 67.8 34 3.7 38.6
10:25 1024 30.24 853 25.19 20.7 69.2 32 3.5 38.4
10:30 1024 30.24 853 25.19 20.6 69 33 4 39.2
10:35 1023 30.21 853 25.19 20.6 69 32 3.5 38.3
10:40 1023 30.21 853 25.19 19.9 67.9 33 3.3 37.9
10:45 1023 30.21 853 25.19 20.5 68.9 31 2.9 37.2
10:50 1023 30.21 853 25.19 20.8 69.5 32 3.5 38.3
10:55 1023 30.21 853 25.19 20.7 69.3 32 3.8 38.8
11:00 1023 30.21 853 25.19 20.9 69.7 33 4.1 39.3
11:05 1023 30.21 852 25.16 21.5 70.7 31 3.9 39
11:10 1023 30.21 852 25.16 21 69.8 32 4 39.2
11:15 1023 30.21 852 25.16 20.9 69.6 31 3.5 38.3
11:20 1023 30.21 852 25.16 21.3 70.4 32 4.1 39.3
11:25 1023 30.21 852 25.16 21.4 70.6 31 3.8 38.9
11:30 1023 30.21 852 25.16 22 71.5 30 3.7 38.7
11:35 1023 30.21 852 25.16 22.6 72.8 29 3.8 38.9
11:40 1023 30.21 852 25.16 23.2 73.8 28 4 39.2
11:45 1023 30.21 852 25.16 23.1 73.6 29 4.2 39.6
11:50 1023 30.21 852 25.16 22.5 72.4 29 3.6 38.4
11:55 1023 30.21 852 25.16 23.4 74.1 28 4 39.3
12:00 1023 30.21 852 25.16 23.6 74.4 30 5 41
12:05 1023 30.21 852 25.16 22.6 72.6 30 4.3 39.7
12:10 1023 30.21 852 25.16 22 71.6 30 3.8 38.8
12:15 1022 30.18 852 25.16 22.9 73.3 28 3.7 38.7
12:20 1022 30.18 852 25.16 23.7 74.7 27 3.9 39.1
12:25 1022 30.18 852 25.16 23.9 75 26 3.7 38.7
12:30 1022 30.18 851 25.13 24.1 75.5 27 4.5 40
12:35 1022 30.18 851 25.13 23.5 74.3 29 4.5 40.1
12:40 1022 30.18 851 25.13 23.3 74 28 3.8 38.8
12:45 1022 30.18 851 25.13 23.6 74.5 28 4.3 39.8
12:50 1022 30.18 851 25.13 22.9 73.3 29 3.9 39.1
12:55 1022 30.18 851 25.13 24.4 75.9 27 4.4 39.9
13:00 1022 30.18 851 25.13 25.1 77.3 22 2.3 36.2
13:05 1022 30.18 851 25.13 25.2 77.4 23 3 37.4
13:10 1022 30.18 851 25.13 25.2 77.4 25 3.8 38.9
13:15 1022 30.18 851 25.13 25 77.1 24 3.2 37.8
13:20 1022 30.18 851 25.13 25.2 77.4 25 3.9 39
13:25 1022 30.18 851 25.13 25 77 25 3.8 38.8
13:30 1022 30.18 851 25.13 24.4 75.9 22 1.5 34.7
13:35 1021 30.15 851 25.13 24.8 76.6 21 1.4 34.4
13:40 1021 30.15 851 25.13 25.8 78.4 21 1.8 35.3
13:45 1021 30.15 851 25.13 24.8 76.6 23 2.4 36.4
13:50 1021 30.15 851 25.13 24.9 76.8 21 1.6 35
13:55 1021 30.15 851 25.13 25.8 78.4 21 2.2 35.9
14:00 1021 30.15 850 25.1 26.2 79.1 21 2.1 35.8
14:05 1021 30.15 850 25.1 26.4 79.5 19 1.2 34.2
14:10 1021 30.15 850 25.1 26.6 79.8 19 1.6 34.8
14:15 1021 30.15 850 25.1 27.2 81 17 0 32
14:20 1021 30.15 850 25.1 27.2 80.9 19 1.7 35.1
14:25 1021 30.15 850 25.1 26.9 80.4 19 1.6 34.9
14:30 1021 30.15 850 25.1 26.7 80.1 19 1.3 34.3
14:35 1021 30.15 850 25.1 26.2 79.1 20 1.9 35.4
14:40 1021 30.15 850 25.1 25.5 77.9 21 1.6 34.9
14:45 1021 30.15 850 25.1 26.7 80.1 19 1.7 35.1
14:50 1021 30.15 850 25.1 27 80.5 20 2.1 35.8
14:55 1021 30.15 850 25.1 26.3 79.3 20 1.9 35.5
15:00 1021 30.15 850 25.1 27 80.7 19 1.9 35.4
15:05 1020 30.12 850 25.1 27.4 81.4 19 1.8 35.2
15:10 1020 30.12 850 25.1 27.8 82 18 1.4 34.4
15:15 1020 30.12 850 25.1 27.7 81.9 19 2.1 35.8
15:20 1020 30.12 850 25.1 27.5 81.5 20 2.6 36.7
15:25 1020 30.12 849 25.07 27.7 81.8 18 1.9 35.3
15:30 1020 30.12 849 25.07 27.4 81.3 19 1.7 35
15:35 1020 30.12 849 25.07 27.5 81.5 20 2.8 37
15:40 1020 30.12 849 25.07 27.7 81.8 19 2.3 36.1
15:45 1020 30.12 849 25.07 27.8 82 18 1.7 35.1
15:50 1020 30.12 849 25.07 28.1 82.6 15 -0.4 31.2
15:55 1020 30.12 849 25.07 28.2 82.7 18 1.6 34.8
16:00 1020 30.12 849 25.07 28.6 83.5 15 -0.1 31.9
16:05 1020 30.12 849 25.07 27.9 82.2 17 1.2 34.1
16:10 1020 30.12 849 25.07 28.2 82.8 16 -0.1 31.9
16:15 1020 30.12 849 25.07 28 82.3 17 1.2 34.1
16:20 1020 30.12 849 25.07 28.7 83.6 17 1.9 35.4
16:25 1020 30.12 849 25.07 28.2 82.7 17 1.2 34.2
16:30 1020 30.12 849 25.07 28.2 82.8 17 1.4 34.5
16:35 1020 30.12 849 25.07 28.5 83.3 17 1.2 34.2
16:40 1019 30.09 849 25.07 28.2 82.7 18 2 35.5
16:45 1019 30.09 849 25.07 27.8 82.1 17 0.6 33.2
16:50 1019 30.09 849 25.07 28 82.4 17 0.9 33.6
16:55 1019 30.09 849 25.07 28.3 82.9 17 1.6 34.8
17:00 1019 30.09 848 25.04 28.7 83.6 17 1.6 34.9
17:05 1019 30.09 848 25.04 29 84.3 17 1.7 35
17:10 1019 30.09 848 25.04 28.6 83.4 18 2.2 36
17:15 1019 30.09 848 25.04 28.5 83.3 18 2.2 36
17:20 1019 30.09 848 25.04 28.6 83.4 17 1.2 34.2
17:25 1019 30.09 848 25.04 28.7 83.6 16 1.1 34.1
17:30 1019 30.09 848 25.04 29.4 84.9 15 0.8 33.4
17:35 1019 30.09 848 25.04 29.5 85 15 0.4 32.7
17:40 1019 30.09 848 25.04 28.8 83.8 16 0.5 32.8
17:45 1019 30.09 848 25.04 28.4 83.2 16 0.9 33.6
17:50 1019 30.09 848 25.04 28.3 82.9 16 0.3 32.5
17:55 1019 30.09 848 25.04 28.3 82.9 16 0.1 32.1
18:00 1019 30.09 848 25.04 28.5 83.3 15 -0 32
18:05 1019 30.09 848 25.04 28.4 83.1 15 -0 32
18:10 1019 30.09 848 25.04 28.5 83.3 17 1.2 34.1
18:15 1019 30.09 848 25.04 28.4 83.1 17 1.6 34.9
18:20 1019 30.09 848 25.04 28.3 82.9 18 1.8 35.2
18:25 1019 30.09 848 25.04 28.1 82.5 17 0.8 33.5
18:30 1019 30.09 848 25.04 28.1 82.6 17 0.9 33.6
18:35 1019 30.09 848 25.04 28.2 82.7 16 0.6 33.1
18:40 1019 30.09 848 25.04 28.1 82.7 15 -0.2 31.6
18:45 1019 30.09 848 25.04 28.2 82.8 15 -0.1 31.8
18:50 1019 30.09 848 25.04 27.7 81.8 17 1.1 34
18:55 1019 30.09 848 25.04 27.1 80.8 17 0.4 32.8
19:00 1019 30.09 848 25.04 26.6 79.8 18 0.3 32.5
19:05 1019 30.09 848 25.04 26.2 79.1 18 0.1 32.2
19:10 1019 30.09 848 25.04 26.2 79.2 19 0.7 33.2
19:15 1019 30.09 848 25.04 26.3 79.4 19 1.2 34.1
19:20 1019 30.09 848 25.04 26.4 79.4 18 0.2 32.4
19:25 1019 30.09 848 25.04 26.2 79.2 20 1.6 34.9
19:30 1019 30.09 848 25.04 26.2 79.1 18 0.5 32.9
19:35 1019 30.09 848 25.04 26 78.7 18 0.2 32.4
19:40 1019 30.09 848 25.04 26 78.7 19 0.8 33.4
19:45 1019 30.09 848 25.04 26 78.7 19 1.1 33.9
19:50 1019 30.09 848 25.04 25.9 78.6 18 0.1 32.2
19:55 1019 30.09 848 25.04 25.5 78 26 4.9 40.9
20:00 1019 30.09 848 25.04 25 77.1 26 4.7 40.5
20:05 1019 30.09 848 25.04 24.9 76.7 24 3.3 37.9
20:10 1019 30.09 848 25.04 24.8 76.6 24 2.9 37.3
20:15 1019 30.09 848 25.04 24.4 76 32 7.1 44.8
20:20 1019 30.09 848 25.04 23.4 74.1 37 8 46.3
20:25 1019 30.09 848 25.04 22.7 72.8 38 7.7 45.9
20:30 1019 30.09 848 25.04 22 71.7 37 6.9 44.4
20:35 1019 30.09 848 25.04 21.5 70.7 40 7.5 45.5
20:40 1019 30.09 848 25.04 21.1 69.9 40 7.2 44.9
20:45 1019 30.09 848 25.04 20.5 68.8 40 6.7 44.1
20:50 1019 30.09 848 25.04 20.1 68.2 43 7.3 45.2
20:55 1019 30.09 848 25.04 19.8 67.7 47 8.3 47
21:00 1019 30.09 848 25.04 19.6 67.3 44 7.1 44.7
21:05 1019 30.09 848 25.04 19.5 67 42 6.4 43.5
21:10 1019 30.09 848 25.04 19.4 66.9 46 7.5 45.5
21:15 1019 30.09 848 25.04 18.6 65.4 49 7.7 45.9
21:20 1019 30.09 848 25.04 18.1 64.6 45 6.1 42.9
21:25 1019 30.09 848 25.04 18.4 65.2 41 4.9 40.9
21:30 1019 30.09 849 25.07 18.6 65.4 40 4.9 40.9
21:35 1019 30.09 849 25.07 18.6 65.5 39 4.5 40.1
21:40 1019 30.09 849 25.07 18.6 65.5 38 4.3 39.7
21:45 1019 30.09 849 25.07 18.7 65.7 39 4.5 40
21:50 1019 30.09 849 25.07 18.6 65.5 38 4.2 39.6
21:55 1019 30.09 849 25.07 18.5 65.2 39 4.2 39.6
22:00 1019 30.09 849 25.07 18.1 64.5 40 4.3 39.7
22:05 1019 30.09 849 25.07 17.9 64.2 40 4.1 39.4
22:10 1019 30.09 849 25.07 17.8 64.1 40 4.2 39.6
22:15 1020 30.12 849 25.07 17.7 63.8 41 4.4 39.9
22:20 1020 30.12 849 25.07 17.5 63.5 42 4.7 40.4
22:25 1020 30.12 849 25.07 17.2 63 42 4.2 39.6
22:30 1020 30.12 849 25.07 17.3 63.2 41 4.1 39.4
22:35 1019 30.09 849 25.07 17.5 63.5 39 3.3 38
22:40 1019 30.09 849 25.07 17.6 63.6 39 3.5 38.2
22:45 1019 30.09 849 25.07 17.7 63.8 38 3.3 37.9
22:50 1019 30.09 849 25.07 17.8 64.1 38 3.6 38.4
22:55 1019 30.09 849 25.07 17.8 64 37 3 37.5
23:00 1019 30.09 849 25.07 17.9 64.2 37 3.3 37.9
23:05 1019 30.09 849 25.07 17.9 64.2 37 2.9 37.3
23:10 1019 30.09 848 25.04 17.8 64.1 37 3.1 37.5
23:15 1019 30.09 848 25.04 17.6 63.6 38 3.2 37.7
23:20 1019 30.09 849 25.07 17.4 63.4 37 2.9 37.2
23:25 1019 30.09 849 25.07 17.8 64 37 2.8 37.1
23:30 1019 30.09 849 25.07 18 64.5 38 3.6 38.5
23:35 1019 30.09 849 25.07 17.7 63.8 38 3.2 37.7
23:40 1019 30.09 848 25.04 17.2 62.9 40 3.4 38.2
23:45 1019 30.09 849 25.07 17.1 62.7 39 3.1 37.6
23:50 1019 30.09 849 25.07 16.9 62.4 39 3 37.4
23:55 1019 30.09 849 25.07 17 62.6 39 3.2 37.8
24:00 1019 30.09 849 25.07 17.5 63.4 37 2.8 37.1